メインページ
METAR-TAF:

METAR-TAF

空港 :

Manihiki, クック諸島

緯度: 10-22-50S, 経度: 160-59-59W, 海抜: 2m

現時点の気象観測

当レポートは58分前の17:00(UTC)に作成
北/北東の風 2kt
気温 29°C
湿度 79%
気圧 1010 hPa

METAR: NCMH 111700Z AUTO 02002KT //// ////// 29/25 Q1010

時間: 07:58 (17:58 UTC)


TAF: 見つかりません

4,000以上の空港の気象観測と天気予報(METAR報とTAF報)

利用可能な観測所は地図上に黄色い丸と赤い丸で示す。

丸の上にカーソルを重ねると観測所名を参照できる。

次にクリックすると気象観測と天気予報を参照できる。

マップの切り替え:黒色「×」印の緑ボタンをクリックして拡大、「-」印の緑ボタンをクリックして縮小、緑色の三角印をクリックして隣りの地図に切り替え


METAR-TAF: